createdAt,value
2022-08-12T00:00:17.577Z,18.10
2022-08-12T00:03:21.963Z,18.14
2022-08-12T00:06:26.607Z,18.06
2022-08-12T00:09:31.478Z,17.97
2022-08-12T00:12:37.433Z,17.97
2022-08-12T00:15:41.870Z,17.84
2022-08-12T00:18:46.353Z,18.00
2022-08-12T00:21:51.017Z,18.02
2022-08-12T00:24:54.981Z,17.93
2022-08-12T00:27:59.159Z,17.65
2022-08-12T00:31:03.628Z,17.72
2022-08-12T00:34:07.719Z,17.82
2022-08-12T00:37:14.252Z,17.70
2022-08-12T00:40:18.693Z,17.54
2022-08-12T00:43:06.913Z,17.50
2022-08-12T00:46:11.530Z,17.42
2022-08-12T00:48:58.244Z,17.33
2022-08-12T00:52:04.458Z,17.45
2022-08-12T00:54:57.290Z,17.43
2022-08-12T00:57:49.237Z,17.36
2022-08-12T01:00:35.479Z,17.21
2022-08-12T01:03:21.879Z,17.16
2022-08-12T01:06:27.010Z,17.12
2022-08-12T01:09:33.318Z,17.10
2022-08-12T01:12:19.834Z,17.00
2022-08-12T01:15:06.230Z,17.07
2022-08-12T01:17:51.446Z,17.00
2022-08-12T01:20:49.932Z,16.90
2022-08-12T01:23:46.961Z,16.96
2022-08-12T01:26:32.811Z,16.86
2022-08-12T01:29:26.127Z,16.67
2022-08-12T01:32:14.985Z,16.50
2022-08-12T01:35:03.338Z,16.60
2022-08-12T01:38:01.712Z,16.71
2022-08-12T01:40:48.616Z,16.60
2022-08-12T01:43:34.933Z,16.50
2022-08-12T01:46:38.878Z,16.51
2022-08-12T01:49:33.657Z,16.37
2022-08-12T01:52:37.055Z,16.40
2022-08-12T01:55:26.745Z,16.59
2022-08-12T01:58:53.219Z,16.42
2022-08-12T02:01:40.021Z,16.53
2022-08-12T02:05:18.223Z,16.25
2022-08-12T02:09:05.229Z,16.26
2022-08-12T02:12:27.730Z,16.10
2022-08-12T02:15:24.914Z,16.13
2022-08-12T02:18:24.794Z,16.02
2022-08-12T02:21:26.641Z,15.98
2022-08-12T02:24:20.232Z,16.00
2022-08-12T02:27:08.801Z,15.95
2022-08-12T02:29:54.459Z,15.95
2022-08-12T02:32:44.052Z,15.97
2022-08-12T02:35:33.799Z,16.05
2022-08-12T02:38:21.618Z,16.01
2022-08-12T02:41:11.393Z,15.78
2022-08-12T02:44:04.097Z,15.77
2022-08-12T02:46:53.950Z,15.74
2022-08-12T02:49:46.474Z,15.64
2022-08-12T02:52:33.898Z,15.65
2022-08-12T02:55:28.613Z,15.68
2022-08-12T02:58:20.530Z,15.62
2022-08-12T03:01:24.387Z,15.86
2022-08-12T03:04:15.396Z,15.69
2022-08-12T03:07:32.661Z,15.59
2022-08-12T03:10:40.064Z,15.52
2022-08-12T03:13:33.682Z,15.65
2022-08-12T03:16:20.950Z,15.60
2022-08-12T03:19:07.605Z,15.59
2022-08-12T03:22:09.420Z,15.66
2022-08-12T03:24:58.299Z,15.68
2022-08-12T03:27:49.845Z,15.78
2022-08-12T03:30:37.357Z,15.40
2022-08-12T03:33:23.997Z,15.52
2022-08-12T03:36:09.939Z,15.61
2022-08-12T03:39:15.603Z,15.33
2022-08-12T03:42:26.432Z,15.33
2022-08-12T03:45:52.213Z,15.34
2022-08-12T03:48:59.227Z,15.48
2022-08-12T03:52:05.238Z,15.31
2022-08-12T03:55:09.956Z,15.27
2022-08-12T03:58:14.431Z,15.24
2022-08-12T04:01:00.107Z,15.12
2022-08-12T04:03:52.273Z,15.32
2022-08-12T04:06:46.284Z,15.41
2022-08-12T04:09:32.541Z,15.30
2022-08-12T04:12:36.431Z,15.28
2022-08-12T04:15:25.780Z,15.19
2022-08-12T04:18:15.915Z,15.22
2022-08-12T04:21:02.830Z,15.31
2022-08-12T04:23:49.373Z,15.33
2022-08-12T04:26:39.415Z,15.37
2022-08-12T04:30:30.426Z,15.34
2022-08-12T04:32:32.046Z,15.44
2022-08-12T04:35:18.657Z,15.44
2022-08-12T04:38:05.231Z,15.51
2022-08-12T04:40:51.728Z,15.51
2022-08-12T04:43:53.892Z,15.68
2022-08-12T04:46:44.203Z,15.76
2022-08-12T04:49:32.049Z,15.80
2022-08-12T04:52:18.253Z,15.89
2022-08-12T04:55:04.190Z,15.86
2022-08-12T04:57:49.843Z,15.97
2022-08-12T05:00:38.032Z,16.06
2022-08-12T05:03:26.409Z,16.03
2022-08-12T05:06:11.953Z,16.08
2022-08-12T05:09:13.643Z,16.20
2022-08-12T05:11:59.279Z,16.24
2022-08-12T05:14:45.244Z,16.42
2022-08-12T05:17:30.948Z,16.52
2022-08-12T05:20:19.757Z,16.67
2022-08-12T05:23:12.635Z,16.87
2022-08-12T05:26:00.890Z,16.99
2022-08-12T05:28:46.497Z,17.24
2022-08-12T05:31:42.623Z,17.43
2022-08-12T05:34:34.434Z,17.88
2022-08-12T05:37:23.181Z,18.04
2022-08-12T05:40:11.437Z,18.38
2022-08-12T05:42:57.402Z,18.72
2022-08-12T05:45:44.955Z,18.93
2022-08-12T05:48:32.990Z,19.22
2022-08-12T05:51:18.770Z,19.40
2022-08-12T05:54:04.942Z,19.62
2022-08-12T05:56:51.613Z,19.76
2022-08-12T05:59:38.651Z,20.05
2022-08-12T06:02:24.046Z,19.94
2022-08-12T06:05:10.458Z,20.21
2022-08-12T06:08:02.056Z,20.45
2022-08-12T06:10:49.951Z,20.64
2022-08-12T06:13:54.137Z,20.68
2022-08-12T06:16:40.220Z,21.02
2022-08-12T06:19:25.937Z,21.24
2022-08-12T06:22:31.497Z,21.30
2022-08-12T06:25:21.654Z,21.60
2022-08-12T06:28:19.442Z,21.76
2022-08-12T06:35:25.025Z,22.14
2022-08-12T06:37:20.106Z,22.63
2022-08-12T06:40:08.041Z,22.72
2022-08-12T06:42:53.692Z,22.98
2022-08-12T06:45:45.124Z,23.13
2022-08-12T06:48:32.559Z,23.31
2022-08-12T06:51:20.571Z,23.39
2022-08-12T06:54:07.196Z,23.62
2022-08-12T06:58:05.549Z,23.82
2022-08-12T06:59:58.675Z,24.04
2022-08-12T07:02:44.554Z,24.43
2022-08-12T07:05:30.853Z,24.85
2022-08-12T07:08:16.893Z,25.15
2022-08-12T07:11:05.911Z,25.37
2022-08-12T07:14:11.534Z,25.48
2022-08-12T07:17:02.083Z,25.80
2022-08-12T07:19:48.718Z,26.07
2022-08-12T07:22:34.980Z,26.27
2022-08-12T07:25:37.864Z,26.52
2022-08-12T07:28:29.325Z,26.31
2022-08-12T07:31:17.453Z,26.63
2022-08-12T07:34:04.354Z,26.84
2022-08-12T07:36:49.800Z,26.96
2022-08-12T07:39:35.607Z,27.13
2022-08-12T07:42:21.166Z,27.30
2022-08-12T07:45:09.354Z,27.79
2022-08-12T07:47:55.221Z,27.97
2022-08-12T07:50:40.598Z,28.23
2022-08-12T07:53:25.882Z,28.37
2022-08-12T07:56:12.019Z,28.77
2022-08-12T07:59:01.043Z,28.98
2022-08-12T08:01:46.701Z,29.39
2022-08-12T08:04:50.505Z,29.49
2022-08-12T08:07:36.306Z,29.79
2022-08-12T08:10:21.705Z,29.82
2022-08-12T08:13:08.724Z,29.70
2022-08-12T08:16:04.071Z,30.06
2022-08-12T08:18:49.720Z,30.82
2022-08-12T08:21:35.422Z,31.10
2022-08-12T08:24:25.800Z,31.63
2022-08-12T08:27:12.255Z,32.04
2022-08-12T08:29:58.465Z,31.94
2022-08-12T08:32:43.861Z,32.41
2022-08-12T08:35:43.157Z,32.63
2022-08-12T08:38:35.416Z,33.02
2022-08-12T08:42:17.368Z,33.70
2022-08-12T08:44:57.926Z,34.71
2022-08-12T08:47:46.250Z,34.92
2022-08-12T08:50:32.174Z,35.03
2022-08-12T08:53:17.949Z,34.78
2022-08-12T08:56:05.407Z,35.32
2022-08-12T08:58:51.386Z,35.56
2022-08-12T09:01:38.651Z,36.11
2022-08-12T09:07:51.708Z,37.07
2022-08-12T09:10:35.616Z,36.85
2022-08-12T09:14:11.253Z,37.94
2022-08-12T09:16:41.570Z,38.14
2022-08-12T09:19:29.308Z,38.04
2022-08-12T09:22:18.547Z,38.43
2022-08-12T09:25:07.232Z,39.99
2022-08-12T09:28:03.384Z,40.77
2022-08-12T09:30:51.292Z,39.88
2022-08-12T09:34:27.493Z,39.54
2022-08-12T09:36:58.184Z,39.98
2022-08-12T09:40:02.431Z,40.83
2022-08-12T09:43:21.885Z,40.74
2022-08-12T09:46:22.131Z,41.67
2022-08-12T09:49:13.600Z,41.09
2022-08-12T09:52:02.305Z,42.66
2022-08-12T09:54:48.471Z,41.39
2022-08-12T09:58:46.932Z,41.63
2022-08-12T10:00:52.258Z,42.76
2022-08-12T10:03:55.476Z,43.54
2022-08-12T10:06:54.857Z,44.59
2022-08-12T10:09:58.542Z,44.28
2022-08-12T10:13:07.122Z,44.02
2022-08-12T10:16:02.574Z,43.39
2022-08-12T10:18:56.990Z,44.61
2022-08-12T10:21:44.042Z,46.09
2022-08-12T10:24:29.407Z,42.98
2022-08-12T10:27:39.495Z,42.22
2022-08-12T10:30:44.191Z,43.60
2022-08-12T10:33:54.974Z,44.25
2022-08-12T10:36:52.012Z,43.81
2022-08-12T10:40:06.923Z,44.12
2022-08-12T10:43:03.705Z,43.95
2022-08-12T10:45:54.103Z,44.18
2022-08-12T10:49:05.755Z,46.21
2022-08-12T10:52:33.453Z,45.78
2022-08-12T10:55:01.942Z,43.69
2022-08-12T10:58:15.268Z,44.95
2022-08-12T11:03:02.265Z,46.00
2022-08-12T11:04:23.265Z,48.29
2022-08-12T11:08:36.997Z,46.40
2022-08-12T11:10:16.087Z,44.83
2022-08-12T11:13:09.345Z,45.99
2022-08-12T11:16:04.179Z,47.00
2022-08-12T11:19:02.578Z,47.94
2022-08-12T11:21:57.989Z,48.61
2022-08-12T11:24:51.057Z,49.03
2022-08-12T11:27:39.334Z,47.62
2022-08-12T11:30:31.462Z,49.42
2022-08-12T11:33:24.017Z,48.22
2022-08-12T11:36:16.302Z,46.62
2022-08-12T11:39:04.377Z,47.30
2022-08-12T11:41:50.324Z,46.98
2022-08-12T11:44:42.966Z,44.81
2022-08-12T11:47:28.944Z,46.29
2022-08-12T11:50:19.275Z,46.86
2022-08-12T11:53:05.444Z,47.74
2022-08-12T11:56:11.271Z,47.08
2022-08-12T12:02:05.129Z,47.85
2022-08-12T12:04:52.461Z,51.56
2022-08-12T12:08:38.572Z,48.33
2022-08-12T12:10:45.177Z,48.07
2022-08-12T12:14:08.461Z,46.33
2022-08-12T12:16:40.065Z,44.78
2022-08-12T12:19:39.763Z,45.94
2022-08-12T12:22:31.196Z,45.48
2022-08-12T12:25:16.773Z,44.94
2022-08-12T12:28:06.408Z,45.24
2022-08-12T12:30:54.461Z,48.20
2022-08-12T12:33:57.349Z,46.44
2022-08-12T12:36:47.663Z,47.02
2022-08-12T12:39:55.233Z,47.92
2022-08-12T12:42:42.642Z,46.81
2022-08-12T12:45:46.486Z,50.75
2022-08-12T12:48:32.388Z,50.02
2022-08-12T12:51:49.208Z,48.93
2022-08-12T12:54:26.010Z,47.23
2022-08-12T12:57:14.781Z,50.95
2022-08-12T13:00:14.929Z,47.38
2022-08-12T13:03:00.581Z,45.94
2022-08-12T13:05:53.534Z,48.70
2022-08-12T13:08:39.693Z,46.82
2022-08-12T13:11:35.460Z,45.21
2022-08-12T13:14:29.571Z,45.50
2022-08-12T13:17:19.894Z,44.94
2022-08-12T13:20:06.046Z,44.44
2022-08-12T13:22:53.640Z,44.68
2022-08-12T13:25:42.795Z,47.24
2022-08-12T13:28:30.711Z,47.74
2022-08-12T13:31:16.395Z,45.79
2022-08-12T13:34:32.214Z,47.00
2022-08-12T13:37:10.160Z,44.16
2022-08-12T13:39:55.659Z,46.00
2022-08-12T13:42:41.274Z,44.77
2022-08-12T13:45:33.912Z,45.18
2022-08-12T13:48:19.891Z,44.18
2022-08-12T13:51:05.438Z,44.86
2022-08-12T13:53:57.788Z,46.41
2022-08-12T13:56:50.052Z,47.01
2022-08-12T13:59:48.727Z,47.07
2022-08-12T14:02:41.349Z,46.32
2022-08-12T14:05:38.395Z,43.55
2022-08-12T14:08:24.760Z,44.72
2022-08-12T14:11:13.148Z,45.16
2022-08-12T14:14:03.951Z,45.54
2022-08-12T14:16:58.239Z,45.94
2022-08-12T14:20:03.834Z,44.73
2022-08-12T14:22:49.497Z,44.97
2022-08-12T14:25:40.689Z,45.11
2022-08-12T14:28:28.568Z,45.10
2022-08-12T14:31:18.264Z,45.30
2022-08-12T14:34:04.966Z,46.45
2022-08-12T14:36:50.457Z,46.23
2022-08-12T14:39:35.849Z,45.15
2022-08-12T14:42:31.615Z,46.13
2022-08-12T14:45:17.319Z,43.88
2022-08-12T14:48:08.807Z,44.75
2022-08-12T14:52:39.703Z,47.38
2022-08-12T14:56:59.085Z,47.37
2022-08-12T14:58:00.831Z,46.30
2022-08-12T15:00:34.197Z,44.02
2022-08-12T15:03:52.504Z,44.01
2022-08-12T15:06:44.078Z,42.83
2022-08-12T15:09:37.764Z,45.16
2022-08-12T15:12:24.612Z,43.15
2022-08-12T15:15:11.312Z,43.40
2022-08-12T15:18:02.025Z,43.05
2022-08-12T15:20:47.842Z,41.04
2022-08-12T15:23:55.007Z,41.99
2022-08-12T15:26:42.362Z,42.89
2022-08-12T15:29:28.384Z,41.87
2022-08-12T15:32:16.216Z,43.10
2022-08-12T15:35:07.838Z,42.95
2022-08-12T15:38:10.280Z,39.62
2022-08-12T15:41:00.010Z,38.80
2022-08-12T15:44:17.026Z,37.11
2022-08-12T15:46:52.555Z,37.26
2022-08-12T15:49:54.579Z,36.56
2022-08-12T15:52:44.484Z,35.47
2022-08-12T15:55:35.161Z,34.77
2022-08-12T15:58:20.623Z,34.95
2022-08-12T16:01:11.678Z,34.41
2022-08-12T16:04:00.320Z,34.56
2022-08-12T16:07:06.178Z,33.97
2022-08-12T16:10:05.015Z,33.22
2022-08-12T16:12:57.182Z,33.08
2022-08-12T16:15:51.099Z,33.11
2022-08-12T16:18:48.844Z,33.03
2022-08-12T16:21:52.654Z,32.80
2022-08-12T16:24:44.513Z,32.45
2022-08-12T16:27:31.518Z,32.11
2022-08-12T16:30:32.746Z,31.99
2022-08-12T16:33:19.532Z,31.77
2022-08-12T16:36:11.429Z,32.07
2022-08-12T16:38:57.349Z,32.06
2022-08-12T16:41:43.752Z,31.81
2022-08-12T16:44:32.688Z,31.66
2022-08-12T16:47:20.627Z,31.56
2022-08-12T16:50:07.717Z,31.20
2022-08-12T16:52:56.250Z,31.18
2022-08-12T16:55:44.905Z,31.18
2022-08-12T16:58:36.364Z,31.05
2022-08-12T17:01:22.239Z,30.92
2022-08-12T17:04:09.050Z,31.07
2022-08-12T17:06:54.955Z,30.72
2022-08-12T17:09:42.260Z,30.57
2022-08-12T17:12:28.992Z,30.41
2022-08-12T17:15:21.309Z,30.35
2022-08-12T17:18:43.541Z,30.30
2022-08-12T17:21:41.327Z,30.31
2022-08-12T17:24:35.866Z,30.12
2022-08-12T17:27:30.919Z,30.04
2022-08-12T17:30:17.227Z,29.60
2022-08-12T17:33:07.050Z,29.69
2022-08-12T17:35:53.275Z,29.65
2022-08-12T17:38:38.803Z,29.48
2022-08-12T17:41:57.058Z,29.42
2022-08-12T17:44:31.383Z,29.37
2022-08-12T17:47:18.698Z,29.21
2022-08-12T17:50:17.340Z,29.18
2022-08-12T17:53:04.528Z,29.14
2022-08-12T17:55:51.292Z,29.02
2022-08-12T17:58:42.064Z,28.79
2022-08-12T18:01:37.189Z,28.74
2022-08-12T18:04:35.998Z,28.65
2022-08-12T18:07:23.399Z,28.61
2022-08-12T18:10:09.838Z,28.60
2022-08-12T18:12:55.517Z,28.36
2022-08-12T18:16:06.162Z,28.32
2022-08-12T18:18:48.984Z,27.94
2022-08-12T18:22:02.577Z,27.96
2022-08-12T18:24:40.857Z,27.84
2022-08-12T18:27:43.507Z,27.79
2022-08-12T18:30:35.830Z,27.57
2022-08-12T18:33:25.624Z,27.43
2022-08-12T18:36:12.963Z,27.29
2022-08-12T18:38:59.861Z,27.13
2022-08-12T18:41:47.079Z,26.99
2022-08-12T18:44:33.437Z,26.81
2022-08-12T18:47:20.728Z,26.58
2022-08-12T18:50:06.597Z,26.39
2022-08-12T18:52:56.915Z,26.10
2022-08-12T18:55:43.306Z,25.94
2022-08-12T18:58:59.245Z,25.79
2022-08-12T19:02:20.745Z,25.60
2022-08-12T19:05:08.173Z,25.45
2022-08-12T19:08:01.761Z,25.20
2022-08-12T19:10:50.438Z,25.03
2022-08-12T19:13:55.877Z,24.85
2022-08-12T19:16:43.862Z,24.78
2022-08-12T19:19:41.696Z,24.66
2022-08-12T19:22:28.924Z,24.53
2022-08-12T19:25:23.564Z,24.29
2022-08-12T19:28:35.532Z,24.19
2022-08-12T19:31:44.571Z,24.14
2022-08-12T19:38:04.208Z,24.01
2022-08-12T19:40:54.885Z,23.79
2022-08-12T19:44:00.432Z,23.68
2022-08-12T19:46:53.013Z,23.53
2022-08-12T19:49:55.159Z,23.50
2022-08-12T19:52:41.646Z,23.36
2022-08-12T19:55:28.163Z,23.21
2022-08-12T19:58:18.139Z,23.03
2022-08-12T20:01:11.097Z,22.73
2022-08-12T20:03:59.308Z,22.60
2022-08-12T20:06:51.525Z,22.47
2022-08-12T20:09:42.956Z,22.27
2022-08-12T20:12:53.834Z,22.20
2022-08-12T20:15:44.807Z,22.15
2022-08-12T20:18:53.463Z,22.28
2022-08-12T20:21:40.182Z,22.18
2022-08-12T20:24:31.518Z,22.10
2022-08-12T20:27:29.812Z,22.06
2022-08-12T20:30:37.183Z,21.96
2022-08-12T20:33:32.667Z,21.88
2022-08-12T20:36:42.458Z,21.88
2022-08-12T20:39:52.581Z,21.91
2022-08-12T20:42:34.583Z,21.63
2022-08-12T20:45:19.984Z,21.60
2022-08-12T20:48:10.298Z,21.43
2022-08-12T20:51:04.541Z,21.32
2022-08-12T20:53:57.443Z,21.25
2022-08-12T20:56:45.301Z,21.10
2022-08-12T20:59:31.896Z,21.08
2022-08-12T21:02:24.279Z,21.03
2022-08-12T21:06:13.046Z,21.07
2022-08-12T21:08:35.003Z,20.97
2022-08-12T21:11:22.660Z,20.85
2022-08-12T21:14:10.539Z,20.85
2022-08-12T21:16:57.002Z,20.77
2022-08-12T21:19:52.798Z,20.63
2022-08-12T21:22:40.308Z,20.51
2022-08-12T21:25:27.047Z,20.47
2022-08-12T21:28:31.637Z,20.33
2022-08-12T21:32:47.060Z,20.29
2022-08-12T21:34:24.288Z,20.30
2022-08-12T21:37:27.333Z,20.25
2022-08-12T21:40:14.969Z,20.27
2022-08-12T21:43:00.650Z,20.28
2022-08-12T21:46:00.401Z,19.88
2022-08-12T21:48:48.347Z,19.97
2022-08-12T21:51:50.003Z,19.79
2022-08-12T21:54:40.558Z,19.69
2022-08-12T21:57:26.200Z,19.60
2022-08-12T22:00:17.405Z,19.50
2022-08-12T22:03:55.005Z,19.44
2022-08-12T22:06:42.536Z,19.47
2022-08-12T22:09:30.315Z,19.48
2022-08-12T22:12:37.618Z,19.50
2022-08-12T22:15:23.542Z,19.55
2022-08-12T22:18:09.520Z,19.60
2022-08-12T22:20:55.323Z,19.31
2022-08-12T22:23:52.348Z,19.23
2022-08-12T22:26:47.855Z,19.04
2022-08-12T22:29:52.503Z,19.13
2022-08-12T22:32:50.493Z,18.91
2022-08-12T22:35:55.783Z,18.82
2022-08-12T22:38:46.643Z,18.73
2022-08-12T22:41:56.700Z,18.71
2022-08-12T22:45:00.798Z,18.82
2022-08-12T22:47:55.686Z,18.70
2022-08-12T22:50:41.722Z,18.86
2022-08-12T22:53:36.309Z,18.76
2022-08-12T22:56:30.813Z,18.67
2022-08-12T22:59:17.085Z,18.56
2022-08-12T23:02:08.260Z,18.50
2022-08-12T23:04:58.260Z,18.56
2022-08-12T23:07:58.868Z,18.67
2022-08-12T23:10:46.361Z,18.89
2022-08-12T23:13:55.262Z,18.93
2022-08-12T23:16:42.333Z,19.04
2022-08-12T23:19:38.324Z,19.00
2022-08-12T23:22:36.140Z,18.92
2022-08-12T23:25:22.553Z,19.12
2022-08-12T23:28:37.158Z,19.18
2022-08-12T23:31:30.438Z,18.95
2022-08-12T23:34:35.980Z,18.65
2022-08-12T23:37:46.762Z,18.50
2022-08-12T23:40:29.178Z,18.64
2022-08-12T23:43:17.579Z,18.63
2022-08-12T23:46:05.948Z,18.78
2022-08-12T23:48:53.897Z,18.78
2022-08-12T23:51:39.364Z,18.90
2022-08-12T23:54:39.176Z,19.07
2022-08-12T23:58:17.144Z,19.20
